createdAt,value
2017-12-08T00:00:13.270Z,0.00
2017-12-08T00:02:13.311Z,0.00
2017-12-08T00:03:13.326Z,0.00
2017-12-08T00:04:13.352Z,0.00
2017-12-08T00:06:13.392Z,0.00
2017-12-08T00:07:13.479Z,0.00
2017-12-08T00:09:13.461Z,0.00
2017-12-08T00:10:13.460Z,0.00
2017-12-08T00:11:25.101Z,0.00
2017-12-08T00:12:13.624Z,0.00
2017-12-08T00:13:13.555Z,0.00
2017-12-08T00:14:13.585Z,0.00
2017-12-08T00:15:13.605Z,0.00
2017-12-08T00:16:13.714Z,0.00
2017-12-08T00:17:13.610Z,0.00
2017-12-08T00:19:13.660Z,0.00
2017-12-08T00:20:13.666Z,0.00
2017-12-08T00:21:13.702Z,0.00
2017-12-08T00:22:13.721Z,0.00
2017-12-08T00:23:13.743Z,0.00
2017-12-08T00:24:13.766Z,0.00
2017-12-08T00:25:13.783Z,0.00
2017-12-08T00:26:13.801Z,0.00
2017-12-08T00:27:13.849Z,0.00
2017-12-08T00:28:13.951Z,0.00
2017-12-08T00:29:25.183Z,0.00
2017-12-08T00:33:13.947Z,0.00
2017-12-08T00:34:13.954Z,0.00
2017-12-08T00:35:14.019Z,0.00
2017-12-08T00:36:14.118Z,0.00
2017-12-08T00:38:14.049Z,0.00
2017-12-08T00:39:14.071Z,0.00
2017-12-08T00:40:26.159Z,0.00
2017-12-08T00:41:14.097Z,0.00
2017-12-08T00:42:14.180Z,0.00
2017-12-08T00:43:14.153Z,0.00
2017-12-08T00:44:14.176Z,0.00
2017-12-08T00:45:14.194Z,0.00
2017-12-08T00:46:26.171Z,0.00
2017-12-08T00:47:14.340Z,0.00
2017-12-08T00:48:14.240Z,0.00
2017-12-08T00:49:14.278Z,0.00
2017-12-08T00:50:14.324Z,0.00
2017-12-08T00:52:14.339Z,0.00
2017-12-08T00:53:14.359Z,0.00
2017-12-08T00:54:14.381Z,0.00
2017-12-08T00:55:14.385Z,0.00
2017-12-08T00:56:14.421Z,0.00
2017-12-08T00:57:14.443Z,0.00
2017-12-08T00:58:14.465Z,0.00
2017-12-08T00:59:14.484Z,0.00
2017-12-08T01:00:14.505Z,0.00
2017-12-08T01:03:14.567Z,0.00
2017-12-08T01:04:26.208Z,0.00
2017-12-08T01:05:14.610Z,0.00
2017-12-08T01:07:14.635Z,0.00
2017-12-08T01:08:14.668Z,0.00
2017-12-08T01:10:14.708Z,0.00
2017-12-08T01:11:14.729Z,0.00
2017-12-08T01:13:14.771Z,0.00
2017-12-08T01:14:14.795Z,0.00
2017-12-08T01:15:14.812Z,0.00
2017-12-08T01:16:14.936Z,0.00
2017-12-08T01:17:14.839Z,0.00
2017-12-08T01:18:14.915Z,0.00
2017-12-08T01:19:14.893Z,0.00
2017-12-08T01:21:14.938Z,0.00
2017-12-08T01:22:14.943Z,0.00
2017-12-08T01:24:14.999Z,0.00
2017-12-08T01:28:15.102Z,0.00
2017-12-08T01:31:15.129Z,0.00
2017-12-08T01:32:15.161Z,0.00
2017-12-08T01:33:15.211Z,0.00
2017-12-08T01:34:15.231Z,0.00
2017-12-08T01:35:15.223Z,0.00
2017-12-08T01:36:15.270Z,0.00
2017-12-08T01:37:15.265Z,0.00
2017-12-08T01:38:15.305Z,0.00
2017-12-08T01:41:15.349Z,0.00
2017-12-08T01:42:15.398Z,0.00
2017-12-08T01:43:15.419Z,0.00
2017-12-08T01:44:15.407Z,0.00
2017-12-08T01:45:15.413Z,0.00
2017-12-08T01:46:15.451Z,0.00
2017-12-08T01:48:15.477Z,0.00
2017-12-08T01:49:15.515Z,0.00
2017-12-08T01:50:15.532Z,0.00
2017-12-08T01:51:15.538Z,0.00
2017-12-08T01:52:15.675Z,0.00
2017-12-08T01:55:15.630Z,0.00
2017-12-08T01:56:15.684Z,0.00
2017-12-08T01:57:15.680Z,0.00
2017-12-08T01:58:15.682Z,0.00
2017-12-08T02:00:15.734Z,0.00
2017-12-08T02:01:15.784Z,0.00
2017-12-08T02:03:15.795Z,0.00
2017-12-08T02:04:15.815Z,0.00
2017-12-08T02:05:15.821Z,0.00
2017-12-08T02:06:15.855Z,0.00
2017-12-08T02:08:15.920Z,0.00
2017-12-08T02:09:15.940Z,0.00
2017-12-08T02:12:15.965Z,0.00
2017-12-08T02:13:16.109Z,0.00
2017-12-08T02:14:16.017Z,0.00
2017-12-08T02:15:16.038Z,0.00
2017-12-08T02:17:28.236Z,0.00
2017-12-08T02:18:16.208Z,0.00
2017-12-08T02:19:16.107Z,0.00
2017-12-08T02:21:16.167Z,0.00
2017-12-08T02:22:16.183Z,0.00
2017-12-08T02:23:28.270Z,0.00
2017-12-08T02:24:16.221Z,0.00
2017-12-08T02:25:16.354Z,0.00
2017-12-08T02:26:16.295Z,0.00
2017-12-08T02:27:16.282Z,0.00
2017-12-08T02:28:16.288Z,0.00
2017-12-08T02:29:28.392Z,0.00
2017-12-08T02:30:16.344Z,0.00
2017-12-08T02:31:16.364Z,0.00
2017-12-08T02:32:16.387Z,0.00
2017-12-08T02:33:16.402Z,0.00
2017-12-08T02:35:16.428Z,0.00
2017-12-08T02:36:16.504Z,0.00
2017-12-08T02:37:16.482Z,0.00
2017-12-08T02:38:16.610Z,0.00
2017-12-08T02:39:16.523Z,0.00
2017-12-08T02:41:16.566Z,0.00
2017-12-08T02:42:16.572Z,0.00
2017-12-08T02:45:16.682Z,0.00
2017-12-08T02:46:16.666Z,0.00
2017-12-08T02:47:16.673Z,0.00
2017-12-08T02:49:16.724Z,0.00
2017-12-08T02:50:16.748Z,0.00
2017-12-08T02:51:16.877Z,0.00
2017-12-08T02:53:16.804Z,0.00
2017-12-08T02:55:16.866Z,0.00
2017-12-08T02:56:16.901Z,0.00
2017-12-08T02:58:16.891Z,0.00
2017-12-08T03:00:17.284Z,0.00
2017-12-08T03:01:16.949Z,0.00
2017-12-08T03:02:16.985Z,0.00
2017-12-08T03:03:17.004Z,0.00
2017-12-08T03:04:17.024Z,0.00
2017-12-08T03:07:17.084Z,0.00
2017-12-08T03:09:17.125Z,0.00
2017-12-08T03:10:17.132Z,0.00
2017-12-08T03:11:17.272Z,0.00
2017-12-08T03:12:17.231Z,0.00
2017-12-08T03:13:17.201Z,0.00
2017-12-08T03:14:17.216Z,0.00
2017-12-08T03:15:17.242Z,0.00
2017-12-08T03:16:17.290Z,0.00
2017-12-08T03:17:17.268Z,0.00
2017-12-08T03:19:17.317Z,0.00
2017-12-08T03:20:17.337Z,0.00
2017-12-08T03:21:17.358Z,0.00
2017-12-08T03:24:17.404Z,0.00
2017-12-08T03:25:17.439Z,0.00
2017-12-08T03:26:17.456Z,0.00
2017-12-08T03:27:17.506Z,0.00
2017-12-08T03:29:17.513Z,0.00
2017-12-08T03:30:17.538Z,0.00
2017-12-08T03:31:17.666Z,0.00
2017-12-08T03:32:17.620Z,0.00
2017-12-08T03:34:17.615Z,0.00
2017-12-08T03:35:17.664Z,0.00
2017-12-08T03:37:17.673Z,0.00
2017-12-08T03:38:17.677Z,0.00
2017-12-08T03:39:17.713Z,0.00
2017-12-08T03:40:17.812Z,0.00
2017-12-08T03:41:17.752Z,0.00
2017-12-08T03:42:17.770Z,0.00
2017-12-08T03:43:29.296Z,0.00
2017-12-08T03:44:17.809Z,0.00
2017-12-08T03:45:17.816Z,0.00
2017-12-08T03:46:17.852Z,0.00
2017-12-08T03:47:17.868Z,0.00
2017-12-08T03:48:17.888Z,0.00
2017-12-08T03:49:17.896Z,0.00
2017-12-08T03:51:17.949Z,0.00
2017-12-08T03:53:17.988Z,0.00
2017-12-08T03:55:18.028Z,0.00
2017-12-08T03:56:18.034Z,0.00
2017-12-08T03:57:18.067Z,0.00
2017-12-08T03:59:18.105Z,0.00
2017-12-08T04:00:18.126Z,0.00
2017-12-08T04:01:18.129Z,0.00
2017-12-08T04:02:18.165Z,0.00
2017-12-08T04:03:18.184Z,0.00
2017-12-08T04:04:18.244Z,0.00
2017-12-08T04:05:18.224Z,0.00
2017-12-08T04:06:18.240Z,0.00
2017-12-08T04:07:18.261Z,0.00
2017-12-08T04:10:18.354Z,0.00
2017-12-08T04:11:18.338Z,0.00
2017-12-08T04:12:18.358Z,0.00
2017-12-08T04:14:18.398Z,0.00
2017-12-08T04:15:18.421Z,0.00
2017-12-08T04:16:18.423Z,0.00
2017-12-08T04:17:18.460Z,0.00
2017-12-08T04:18:18.476Z,0.00
2017-12-08T04:19:18.498Z,0.00
2017-12-08T04:20:18.517Z,0.00
2017-12-08T04:21:18.539Z,0.00
2017-12-08T04:22:18.613Z,0.00
2017-12-08T04:23:18.576Z,0.00
2017-12-08T04:25:18.619Z,0.00
2017-12-08T04:26:19.038Z,0.00
2017-12-08T04:27:18.655Z,0.00
2017-12-08T04:28:18.661Z,0.00
2017-12-08T04:29:18.727Z,0.00
2017-12-08T04:30:18.737Z,0.00
2017-12-08T04:31:18.735Z,0.00
2017-12-08T04:33:18.775Z,0.00
2017-12-08T04:34:18.797Z,0.00
2017-12-08T04:37:18.964Z,0.00
2017-12-08T04:38:18.977Z,0.00
2017-12-08T04:39:18.924Z,0.00
2017-12-08T04:42:18.983Z,0.00
2017-12-08T04:44:18.992Z,0.00
2017-12-08T04:48:30.390Z,0.00
2017-12-08T04:50:19.112Z,0.00
2017-12-08T04:51:19.118Z,0.00
2017-12-08T04:52:19.151Z,0.00
2017-12-08T04:53:19.279Z,0.00
2017-12-08T04:54:19.189Z,0.00
2017-12-08T04:55:19.254Z,0.00
2017-12-08T04:56:19.230Z,0.00
2017-12-08T04:57:19.235Z,0.00
2017-12-08T04:58:19.264Z,0.00
2017-12-08T04:59:19.290Z,0.00
2017-12-08T05:00:19.311Z,0.00
2017-12-08T05:01:19.328Z,0.00
2017-12-08T05:03:19.368Z,0.00
2017-12-08T05:04:19.391Z,0.00
2017-12-08T05:05:19.436Z,0.00
2017-12-08T05:07:19.447Z,0.00
2017-12-08T05:08:19.467Z,0.00
2017-12-08T05:09:19.474Z,0.00
2017-12-08T05:11:19.513Z,0.00
2017-12-08T05:13:19.552Z,0.00
2017-12-08T05:14:19.693Z,0.00
2017-12-08T05:16:19.624Z,0.00
2017-12-08T05:17:19.642Z,0.00
2017-12-08T05:18:19.648Z,0.00
2017-12-08T05:21:19.745Z,0.00
2017-12-08T05:23:19.760Z,0.00
2017-12-08T05:24:19.890Z,0.00
2017-12-08T05:26:19.850Z,0.00
2017-12-08T05:27:19.840Z,0.00
2017-12-08T05:28:19.844Z,0.00
2017-12-08T05:29:31.453Z,0.00
2017-12-08T05:30:19.928Z,0.00
2017-12-08T05:31:19.905Z,0.00
2017-12-08T05:32:19.924Z,0.00
2017-12-08T05:33:19.956Z,0.00
2017-12-08T05:35:19.980Z,0.00
2017-12-08T05:37:20.023Z,0.00
2017-12-08T05:39:20.077Z,0.00
2017-12-08T05:40:20.095Z,0.00
2017-12-08T05:42:20.218Z,0.00
2017-12-08T05:43:20.150Z,0.00
2017-12-08T05:44:20.159Z,0.00
2017-12-08T05:45:20.194Z,0.00
2017-12-08T05:46:20.212Z,0.00
2017-12-08T05:47:20.228Z,0.00
2017-12-08T05:48:20.248Z,0.00
2017-12-08T05:49:20.268Z,0.00
2017-12-08T05:50:20.312Z,0.00
2017-12-08T05:51:20.293Z,0.00
2017-12-08T05:52:20.327Z,0.00
2017-12-08T05:53:20.346Z,0.00
2017-12-08T05:54:20.368Z,0.00
2017-12-08T05:55:20.384Z,0.00
2017-12-08T05:56:20.452Z,0.00
2017-12-08T05:57:20.760Z,0.00
2017-12-08T05:58:20.445Z,0.00
2017-12-08T05:59:20.463Z,0.00
2017-12-08T06:00:20.483Z,0.00
2017-12-08T06:02:20.520Z,0.00
2017-12-08T06:04:20.547Z,0.00
2017-12-08T06:05:20.582Z,0.00
2017-12-08T06:06:20.597Z,0.00
2017-12-08T06:08:20.636Z,0.00
2017-12-08T06:09:20.828Z,0.00
2017-12-08T06:11:21.036Z,0.00
2017-12-08T06:12:20.825Z,0.00
2017-12-08T06:13:20.737Z,0.00
2017-12-08T06:15:20.758Z,4.00
2017-12-08T06:16:20.809Z,4.00
2017-12-08T06:17:20.795Z,0.00
2017-12-08T06:18:20.933Z,4.00
2017-12-08T06:19:20.836Z,4.00
2017-12-08T06:20:20.866Z,4.00
2017-12-08T06:21:20.889Z,4.00
2017-12-08T06:22:20.907Z,4.00
2017-12-08T06:25:20.963Z,8.00
2017-12-08T06:26:20.986Z,12.00
2017-12-08T06:27:21.004Z,12.00
2017-12-08T06:28:21.011Z,12.00
2017-12-08T06:29:21.044Z,20.00
2017-12-08T06:30:21.062Z,24.00
2017-12-08T06:31:21.088Z,24.00
2017-12-08T06:33:21.121Z,32.00
2017-12-08T06:35:21.156Z,48.00
2017-12-08T06:37:21.239Z,60.00
2017-12-08T06:38:21.240Z,68.00
2017-12-08T06:40:21.240Z,84.00
2017-12-08T06:41:21.275Z,96.00
2017-12-08T06:42:21.407Z,108.00
2017-12-08T06:43:21.300Z,120.00
2017-12-08T06:44:21.333Z,144.00
2017-12-08T06:45:21.350Z,160.00
2017-12-08T06:46:21.357Z,180.00
2017-12-08T06:47:21.391Z,184.00
2017-12-08T06:48:21.415Z,204.00
2017-12-08T06:49:21.431Z,220.00
2017-12-08T06:51:21.467Z,256.00
2017-12-08T06:53:21.505Z,316.00
2017-12-08T06:55:21.543Z,384.00
2017-12-08T06:56:21.593Z,380.00
2017-12-08T06:57:21.626Z,412.00
2017-12-08T06:58:21.602Z,448.00
2017-12-08T06:59:21.621Z,476.00
2017-12-08T07:00:21.640Z,504.00
2017-12-08T07:01:22.001Z,536.00
2017-12-08T07:02:21.665Z,580.00
2017-12-08T07:03:21.702Z,612.00
2017-12-08T07:06:21.745Z,736.00
2017-12-08T07:07:21.777Z,772.00
2017-12-08T07:08:21.794Z,792.00
2017-12-08T07:09:21.802Z,768.00
2017-12-08T07:10:21.834Z,808.00
2017-12-08T07:11:21.958Z,920.00
2017-12-08T07:12:21.876Z,1060.00
2017-12-08T07:13:21.894Z,1272.00
2017-12-08T07:14:21.938Z,1588.00
2017-12-08T07:15:21.932Z,2048.00
2017-12-08T07:17:22.006Z,2484.00
2017-12-08T07:19:33.529Z,2488.00
2017-12-08T07:20:22.028Z,2280.00
2017-12-08T07:21:22.052Z,2184.00
2017-12-08T07:23:22.089Z,2004.00
2017-12-08T07:24:22.134Z,2112.00
2017-12-08T07:26:22.482Z,2592.00
2017-12-08T07:27:22.162Z,2756.00
2017-12-08T07:28:22.186Z,2868.00
2017-12-08T07:29:22.307Z,2780.00
2017-12-08T07:30:22.224Z,2704.00
2017-12-08T07:31:22.229Z,3008.00
2017-12-08T07:32:22.316Z,3072.00
2017-12-08T07:33:22.281Z,3124.00
2017-12-08T07:34:22.302Z,3460.00
2017-12-08T07:35:22.321Z,3268.00
2017-12-08T07:36:22.340Z,3512.00
2017-12-08T07:37:22.701Z,3528.00
2017-12-08T07:38:22.490Z,3272.00
2017-12-08T07:40:22.529Z,3320.00
2017-12-08T07:41:22.439Z,3356.00
2017-12-08T07:44:22.609Z,2972.00
2017-12-08T07:45:22.503Z,2868.00
2017-12-08T07:47:22.555Z,2904.00
2017-12-08T07:49:22.706Z,3192.00
2017-12-08T07:50:22.614Z,3192.00
2017-12-08T07:51:22.635Z,3232.00
2017-12-08T07:53:22.673Z,2964.00
2017-12-08T07:54:22.694Z,3068.00
2017-12-08T07:55:22.716Z,3204.00
2017-12-08T07:56:22.834Z,3380.00
2017-12-08T07:59:22.787Z,3544.00
2017-12-08T08:00:23.204Z,3456.00
2017-12-08T08:01:22.827Z,3208.00
2017-12-08T08:02:22.847Z,2948.00
2017-12-08T08:04:22.889Z,3388.00
2017-12-08T08:06:22.928Z,3260.00
2017-12-08T08:07:22.930Z,3332.00
2017-12-08T08:08:22.991Z,3128.00
2017-12-08T08:09:22.984Z,3356.00
2017-12-08T08:10:22.989Z,3564.00
2017-12-08T08:11:23.130Z,3892.00
2017-12-08T08:13:23.063Z,4112.00
2017-12-08T08:14:34.552Z,4692.00
2017-12-08T08:17:23.169Z,4588.00
2017-12-08T08:18:23.147Z,5148.00
2017-12-08T08:19:23.208Z,5168.00
2017-12-08T08:21:23.220Z,5676.00
2017-12-08T08:22:23.266Z,5580.00
2017-12-08T08:24:23.264Z,5136.00
2017-12-08T08:26:23.425Z,5020.00
2017-12-08T08:27:23.336Z,5668.00
2017-12-08T08:29:23.485Z,5512.00
2017-12-08T08:30:23.394Z,6308.00
2017-12-08T08:31:23.524Z,6736.00
2017-12-08T08:32:23.464Z,6160.00
2017-12-08T08:33:23.454Z,6744.00
2017-12-08T08:34:23.459Z,6616.00
2017-12-08T08:35:23.513Z,7304.00
2017-12-08T08:36:23.514Z,7604.00
2017-12-08T08:37:23.530Z,8136.00
2017-12-08T08:38:23.552Z,8128.00
2017-12-08T08:39:23.570Z,7880.00
2017-12-08T08:40:23.576Z,8104.00
2017-12-08T08:41:23.614Z,8152.00
2017-12-08T08:42:23.632Z,7876.00
2017-12-08T08:44:23.698Z,8904.00
2017-12-08T08:45:23.691Z,9048.00
2017-12-08T08:46:23.774Z,8772.00
2017-12-08T08:50:23.779Z,7952.00
2017-12-08T08:51:23.956Z,8020.00
2017-12-08T08:52:24.157Z,8292.00
2017-12-08T08:53:23.877Z,8684.00
2017-12-08T08:54:23.897Z,9904.00
2017-12-08T08:55:23.877Z,11260.00
2017-12-08T08:56:35.562Z,12428.00
2017-12-08T08:57:24.096Z,12896.00
2017-12-08T08:58:23.948Z,13316.00
2017-12-08T09:00:23.990Z,12156.00
2017-12-08T09:01:24.114Z,11508.00
2017-12-08T09:02:24.014Z,11704.00
2017-12-08T09:03:24.051Z,10964.00
2017-12-08T09:05:24.108Z,12040.00
2017-12-08T09:06:24.112Z,12604.00
2017-12-08T09:08:24.183Z,10564.00
2017-12-08T09:09:24.168Z,11504.00
2017-12-08T09:10:24.175Z,12360.00
2017-12-08T09:11:24.212Z,13776.00
2017-12-08T09:12:24.230Z,14420.00
2017-12-08T09:13:24.280Z,13664.00
2017-12-08T09:14:35.671Z,13808.00
2017-12-08T09:15:24.293Z,14456.00
2017-12-08T09:16:24.312Z,14828.00
2017-12-08T09:17:24.332Z,14360.00
2017-12-08T09:18:24.354Z,13148.00
2017-12-08T09:19:24.377Z,12772.00
2017-12-08T09:21:24.414Z,12688.00
2017-12-08T09:22:25.228Z,12928.00
2017-12-08T09:23:24.436Z,13052.00
2017-12-08T09:24:24.471Z,13124.00
2017-12-08T09:26:24.498Z,14380.00
2017-12-08T09:27:24.557Z,14172.00
2017-12-08T09:28:24.551Z,13668.00
2017-12-08T09:29:24.559Z,13424.00
2017-12-08T09:30:24.595Z,12416.00
2017-12-08T09:32:24.634Z,13124.00
2017-12-08T09:33:24.765Z,12392.00
2017-12-08T09:34:24.679Z,12420.00
2017-12-08T09:35:24.694Z,13028.00
2017-12-08T09:36:24.704Z,12808.00
2017-12-08T09:37:24.737Z,12924.00
2017-12-08T09:38:36.681Z,13328.00
2017-12-08T09:39:24.803Z,13476.00
2017-12-08T09:40:24.815Z,13452.00
2017-12-08T09:41:24.818Z,13040.00
2017-12-08T09:42:24.839Z,12756.00
2017-12-08T09:45:24.900Z,14828.00
2017-12-08T09:46:24.912Z,14668.00
2017-12-08T09:48:24.990Z,14684.00
2017-12-08T09:49:24.984Z,14008.00
2017-12-08T09:50:25.080Z,14932.00
2017-12-08T09:51:25.010Z,14956.00
2017-12-08T09:52:25.045Z,14604.00
2017-12-08T09:53:25.066Z,15048.00
2017-12-08T09:54:25.109Z,15108.00
2017-12-08T09:56:25.128Z,14672.00
2017-12-08T09:57:25.153Z,14532.00
2017-12-08T09:58:25.276Z,14008.00
2017-12-08T10:00:25.249Z,15296.00
2017-12-08T10:01:25.219Z,15804.00
2017-12-08T10:02:25.258Z,15292.00
2017-12-08T10:03:25.277Z,15220.00
2017-12-08T10:05:25.316Z,13028.00
2017-12-08T10:06:25.341Z,12632.00
2017-12-08T10:07:25.361Z,12252.00
2017-12-08T10:08:25.365Z,12816.00
2017-12-08T10:10:25.425Z,12748.00
2017-12-08T10:11:25.442Z,12564.00
2017-12-08T10:12:25.462Z,13124.00
2017-12-08T10:13:25.484Z,12844.00
2017-12-08T10:16:25.583Z,15576.00
2017-12-08T10:17:25.559Z,15628.00
2017-12-08T10:18:25.593Z,16356.00
2017-12-08T10:19:25.610Z,15860.00
2017-12-08T10:20:25.629Z,15608.00
2017-12-08T10:21:25.657Z,15696.00
2017-12-08T10:23:25.695Z,14964.00
2017-12-08T10:25:25.736Z,14644.00
2017-12-08T10:26:25.869Z,13508.00
2017-12-08T10:27:25.761Z,13292.00
2017-12-08T10:28:25.799Z,13084.00
2017-12-08T10:29:25.817Z,12264.00
2017-12-08T10:30:25.947Z,12236.00
2017-12-08T10:33:25.937Z,13024.00
2017-12-08T10:34:25.909Z,13716.00
2017-12-08T10:35:26.056Z,13464.00
2017-12-08T10:37:25.984Z,13608.00
2017-12-08T10:38:26.037Z,14228.00
2017-12-08T10:39:26.023Z,13852.00
2017-12-08T10:40:26.046Z,14148.00
2017-12-08T10:41:26.055Z,14228.00
2017-12-08T10:43:26.116Z,14520.00
2017-12-08T10:46:26.156Z,13836.00
2017-12-08T10:47:26.191Z,13408.00
2017-12-08T10:48:26.197Z,13612.00
2017-12-08T10:49:26.571Z,13944.00
2017-12-08T10:50:26.254Z,14508.00
2017-12-08T10:51:26.380Z,13740.00
2017-12-08T10:52:26.321Z,13508.00
2017-12-08T10:54:26.337Z,14456.00
2017-12-08T10:55:26.344Z,15420.00
2017-12-08T10:56:26.377Z,16188.00
2017-12-08T10:57:26.397Z,15692.00
2017-12-08T10:58:37.734Z,15196.00
2017-12-08T11:00:26.789Z,14864.00
2017-12-08T11:01:26.478Z,15744.00
2017-12-08T11:02:26.486Z,14952.00
2017-12-08T11:03:38.679Z,14652.00
2017-12-08T11:04:26.545Z,14640.00
2017-12-08T11:05:26.562Z,15760.00
2017-12-08T11:06:26.586Z,17216.00
2017-12-08T11:07:26.603Z,16692.00
2017-12-08T11:08:26.627Z,18272.00
2017-12-08T11:09:26.664Z,18464.00
2017-12-08T11:10:26.666Z,20064.00
2017-12-08T11:12:26.695Z,18336.00
2017-12-08T11:13:26.730Z,17920.00
2017-12-08T11:14:26.752Z,16556.00
2017-12-08T11:16:26.793Z,15680.00
2017-12-08T11:18:26.838Z,14880.00
2017-12-08T11:19:26.864Z,15412.00
2017-12-08T11:20:26.881Z,12912.00
2017-12-08T11:21:26.903Z,10948.00
2017-12-08T11:23:26.944Z,9516.00
2017-12-08T11:26:27.008Z,17824.00
2017-12-08T11:27:27.027Z,17984.00
2017-12-08T11:28:27.036Z,17548.00
2017-12-08T11:29:27.111Z,16948.00
2017-12-08T11:30:27.091Z,18272.00
2017-12-08T11:31:27.114Z,19264.00
2017-12-08T11:33:27.157Z,20480.00
2017-12-08T11:34:27.208Z,21856.00
2017-12-08T11:35:27.202Z,19936.00
2017-12-08T11:36:27.221Z,19264.00
2017-12-08T11:37:27.243Z,20864.00
2017-12-08T11:38:27.287Z,21600.00
2017-12-08T11:39:27.285Z,21088.00
2017-12-08T11:40:27.336Z,20896.00
2017-12-08T11:41:27.327Z,21600.00
2017-12-08T11:42:27.377Z,22848.00
2017-12-08T11:44:27.395Z,24096.00
2017-12-08T11:48:27.466Z,20416.00
2017-12-08T11:49:27.547Z,19136.00
2017-12-08T11:50:27.525Z,19008.00
2017-12-08T11:51:27.545Z,18752.00
2017-12-08T11:52:39.774Z,16480.00
2017-12-08T11:53:27.622Z,12524.00
2017-12-08T11:54:27.612Z,9516.00
2017-12-08T11:55:27.638Z,7152.00
2017-12-08T11:56:27.636Z,5648.00
2017-12-08T11:57:27.677Z,4592.00
2017-12-08T11:59:39.788Z,3416.00
2017-12-08T12:01:27.759Z,2800.00
2017-12-08T12:03:27.800Z,2408.00
2017-12-08T12:04:27.827Z,2360.00
2017-12-08T12:05:39.854Z,2308.00
2017-12-08T12:06:27.864Z,2208.00
2017-12-08T12:07:27.889Z,2128.00
2017-12-08T12:09:27.931Z,1952.00
2017-12-08T12:10:28.025Z,1928.00
2017-12-08T12:12:27.989Z,1924.00
2017-12-08T12:13:28.012Z,1872.00
2017-12-08T12:14:28.017Z,1864.00
2017-12-08T12:15:28.052Z,1844.00
2017-12-08T12:16:28.073Z,1812.00
2017-12-08T12:18:28.104Z,1900.00
2017-12-08T12:19:28.137Z,1972.00
2017-12-08T12:23:28.219Z,2208.00
2017-12-08T12:24:28.236Z,2516.00
2017-12-08T12:26:28.268Z,3008.00
2017-12-08T12:27:28.302Z,3080.00
2017-12-08T12:29:28.339Z,3000.00
2017-12-08T12:30:28.360Z,2984.00
2017-12-08T12:31:28.381Z,3204.00
2017-12-08T12:32:28.569Z,3676.00
2017-12-08T12:33:28.415Z,3728.00
2017-12-08T12:35:28.461Z,3452.00
2017-12-08T12:36:28.483Z,3632.00
2017-12-08T12:37:28.492Z,3144.00
2017-12-08T12:38:28.548Z,2552.00
2017-12-08T12:39:28.546Z,2464.00
2017-12-08T12:40:28.568Z,2428.00
2017-12-08T12:41:28.626Z,2244.00
2017-12-08T12:42:28.607Z,2056.00
2017-12-08T12:43:28.631Z,2332.00
2017-12-08T12:44:28.634Z,2644.00
2017-12-08T12:45:28.669Z,2572.00
2017-12-08T12:47:28.710Z,2132.00
2017-12-08T12:48:28.716Z,2024.00
2017-12-08T12:50:28.758Z,1860.00
2017-12-08T12:51:28.904Z,1688.00
2017-12-08T12:52:28.794Z,1640.00
2017-12-08T12:53:28.943Z,1704.00
2017-12-08T12:54:28.849Z,1836.00
2017-12-08T12:55:28.892Z,1892.00
2017-12-08T12:56:28.878Z,1928.00
2017-12-08T12:57:28.913Z,2024.00
2017-12-08T12:58:28.928Z,2156.00
2017-12-08T12:59:28.951Z,2192.00
2017-12-08T13:00:29.082Z,2156.00
2017-12-08T13:01:29.032Z,2140.00
2017-12-08T13:02:28.996Z,2064.00
2017-12-08T13:03:29.030Z,2028.00
2017-12-08T13:04:29.034Z,2084.00
2017-12-08T13:05:29.069Z,2156.00
2017-12-08T13:06:29.092Z,2076.00
2017-12-08T13:07:29.109Z,2048.00
2017-12-08T13:08:29.129Z,2196.00
2017-12-08T13:09:29.148Z,2292.00
2017-12-08T13:10:29.176Z,2400.00
2017-12-08T13:12:29.207Z,2336.00
2017-12-08T13:13:29.214Z,2300.00
2017-12-08T13:14:29.247Z,2220.00
2017-12-08T13:15:29.297Z,2080.00
2017-12-08T13:16:29.317Z,2028.00
2017-12-08T13:17:29.305Z,2064.00
2017-12-08T13:18:29.329Z,2144.00
2017-12-08T13:20:29.352Z,2432.00
2017-12-08T13:21:29.425Z,2400.00
2017-12-08T13:22:29.404Z,2308.00
2017-12-08T13:23:29.534Z,2492.00
2017-12-08T13:24:29.446Z,2652.00
2017-12-08T13:25:29.458Z,2840.00
2017-12-08T13:26:29.485Z,2704.00
2017-12-08T13:27:29.501Z,2880.00
2017-12-08T13:28:29.632Z,3148.00
2017-12-08T13:29:29.524Z,2988.00
2017-12-08T13:31:29.561Z,2872.00
2017-12-08T13:35:29.681Z,12036.00
2017-12-08T13:36:29.712Z,9792.00
2017-12-08T13:37:29.692Z,8208.00
2017-12-08T13:38:29.697Z,7416.00
2017-12-08T13:39:41.834Z,7204.00
2017-12-08T13:40:29.750Z,7384.00
2017-12-08T13:43:29.805Z,8264.00
2017-12-08T13:44:29.823Z,7504.00
2017-12-08T13:45:29.844Z,7184.00
2017-12-08T13:47:30.139Z,6860.00
2017-12-08T13:49:29.900Z,6700.00
2017-12-08T13:50:29.967Z,6440.00
2017-12-08T13:51:29.940Z,7036.00
2017-12-08T13:53:29.986Z,8928.00
2017-12-08T13:55:30.135Z,7220.00
2017-12-08T13:56:30.084Z,6896.00
2017-12-08T13:57:30.060Z,7088.00
2017-12-08T13:58:30.080Z,6204.00
2017-12-08T13:59:30.124Z,5444.00
2017-12-08T14:00:30.111Z,4732.00
2017-12-08T14:01:30.128Z,4700.00
2017-12-08T14:02:30.146Z,4844.00
2017-12-08T14:03:30.274Z,4516.00
2017-12-08T14:04:30.183Z,4144.00
2017-12-08T14:05:30.184Z,4096.00
2017-12-08T14:07:30.243Z,4812.00
2017-12-08T14:08:30.253Z,4584.00
2017-12-08T14:10:30.287Z,5264.00
2017-12-08T14:12:30.307Z,4748.00
2017-12-08T14:13:30.450Z,4984.00
2017-12-08T14:15:30.388Z,3816.00
2017-12-08T14:16:30.405Z,3744.00
2017-12-08T14:18:30.424Z,5340.00
2017-12-08T14:19:30.441Z,4988.00
2017-12-08T14:20:30.456Z,4804.00
2017-12-08T14:21:30.476Z,4324.00
2017-12-08T14:22:30.491Z,3964.00
2017-12-08T14:23:30.537Z,3912.00
2017-12-08T14:24:30.521Z,3672.00
2017-12-08T14:25:30.526Z,2964.00
2017-12-08T14:26:30.544Z,2752.00
2017-12-08T14:27:30.558Z,2776.00
2017-12-08T14:28:30.913Z,3044.00
2017-12-08T14:30:30.631Z,3156.00
2017-12-08T14:31:30.984Z,3148.00
2017-12-08T14:32:42.912Z,3056.00
2017-12-08T14:33:30.673Z,2944.00
2017-12-08T14:35:30.707Z,2888.00
2017-12-08T14:36:30.724Z,2768.00
2017-12-08T14:37:30.773Z,2800.00
2017-12-08T14:38:30.757Z,2676.00
2017-12-08T14:39:30.759Z,2568.00
2017-12-08T14:40:30.787Z,2496.00
2017-12-08T14:41:30.831Z,2352.00
2017-12-08T14:42:30.808Z,2260.00
2017-12-08T14:43:30.822Z,2184.00
2017-12-08T14:44:42.908Z,2144.00
2017-12-08T14:45:30.868Z,2200.00
2017-12-08T14:46:30.921Z,2344.00
2017-12-08T14:47:30.902Z,2488.00
2017-12-08T14:49:30.970Z,2452.00
2017-12-08T14:50:42.986Z,2140.00
2017-12-08T14:51:31.014Z,1828.00
2017-12-08T14:53:31.000Z,1448.00
2017-12-08T14:54:31.014Z,1500.00
2017-12-08T14:55:31.017Z,1496.00
2017-12-08T14:56:31.049Z,1408.00
2017-12-08T14:57:31.065Z,1324.00
2017-12-08T14:59:31.127Z,1188.00
2017-12-08T15:00:31.101Z,1140.00
2017-12-08T15:01:31.135Z,1140.00
2017-12-08T15:02:31.142Z,1112.00
2017-12-08T15:05:31.183Z,924.00
2017-12-08T15:07:31.211Z,912.00
2017-12-08T15:10:31.263Z,800.00
2017-12-08T15:12:31.294Z,724.00
2017-12-08T15:13:31.352Z,656.00
2017-12-08T15:15:31.339Z,588.00
2017-12-08T15:18:29.950Z,576.00
2017-12-08T15:19:31.423Z,464.00
2017-12-08T15:20:31.460Z,424.00
2017-12-08T15:21:31.453Z,380.00
2017-12-08T15:22:31.468Z,336.00
2017-12-08T15:23:31.522Z,316.00
2017-12-08T15:26:31.568Z,228.00
2017-12-08T15:28:31.570Z,184.00
2017-12-08T15:29:31.609Z,168.00
2017-12-08T15:30:31.615Z,148.00
2017-12-08T15:31:31.612Z,132.00
2017-12-08T15:32:31.626Z,120.00
2017-12-08T15:33:31.676Z,108.00
2017-12-08T15:34:31.659Z,100.00
2017-12-08T15:35:31.675Z,84.00
2017-12-08T15:36:31.683Z,72.00
2017-12-08T15:37:31.707Z,60.00
2017-12-08T15:39:31.775Z,52.00
2017-12-08T15:40:31.774Z,44.00
2017-12-08T15:41:31.804Z,36.00
2017-12-08T15:42:31.823Z,24.00
2017-12-08T15:43:31.802Z,24.00
2017-12-08T15:44:31.843Z,20.00
2017-12-08T15:45:31.832Z,12.00
2017-12-08T15:46:31.836Z,12.00
2017-12-08T15:47:31.866Z,12.00
2017-12-08T15:48:31.991Z,8.00
2017-12-08T15:49:31.899Z,8.00
2017-12-08T15:50:31.914Z,8.00
2017-12-08T15:51:31.926Z,4.00
2017-12-08T15:52:31.933Z,4.00
2017-12-08T15:53:31.945Z,4.00
2017-12-08T15:54:31.961Z,0.00
2017-12-08T15:55:31.978Z,0.00
2017-12-08T15:56:31.993Z,0.00
2017-12-08T15:57:32.008Z,4.00
2017-12-08T15:58:32.049Z,4.00
2017-12-08T15:59:32.082Z,0.00
2017-12-08T16:00:32.059Z,4.00